createdAt,value
2023-05-13T00:02:22.342Z,82.39
2023-05-13T00:04:48.876Z,82.20
2023-05-13T00:07:15.326Z,82.33
2023-05-13T00:09:42.360Z,81.59
2023-05-13T00:12:08.924Z,81.57
2023-05-13T00:14:35.366Z,81.21
2023-05-13T00:17:04.714Z,81.19
2023-05-13T00:19:31.867Z,80.41
2023-05-13T00:21:58.328Z,80.14
2023-05-13T00:24:24.787Z,79.81
2023-05-13T00:26:51.299Z,79.44
2023-05-13T00:29:17.707Z,80.64
2023-05-13T00:31:44.272Z,80.38
2023-05-13T00:34:10.982Z,80.21
2023-05-13T00:36:37.582Z,81.48
2023-05-13T00:39:04.147Z,81.78
2023-05-13T00:41:30.604Z,82.66
2023-05-13T00:43:57.437Z,82.75
2023-05-13T00:46:24.826Z,82.77
2023-05-13T00:48:53.153Z,82.62
2023-05-13T00:51:19.743Z,82.43
2023-05-13T00:53:46.393Z,83.22
2023-05-13T00:56:13.988Z,81.92
2023-05-13T00:58:40.613Z,81.43
2023-05-13T01:01:17.551Z,82.13
2023-05-13T01:04:07.953Z,82.54
2023-05-13T01:06:52.168Z,82.13
2023-05-13T01:09:48.053Z,82.20
2023-05-13T01:12:26.846Z,82.29
2023-05-13T01:15:03.956Z,81.01
2023-05-13T01:18:07.033Z,80.21
2023-05-13T01:20:34.562Z,79.98
2023-05-13T01:23:01.322Z,79.90
2023-05-13T01:25:27.872Z,79.64
2023-05-13T01:27:54.670Z,79.57
2023-05-13T01:30:22.348Z,80.90
2023-05-13T01:32:50.395Z,81.81
2023-05-13T01:35:17.783Z,81.62
2023-05-13T01:37:46.584Z,81.82
2023-05-13T01:40:28.025Z,82.30
2023-05-13T01:43:00.952Z,81.36
2023-05-13T01:45:29.772Z,79.87
2023-05-13T01:47:56.609Z,79.79
2023-05-13T01:50:24.768Z,79.49
2023-05-13T01:52:51.419Z,79.13
2023-05-13T01:55:19.265Z,80.24
2023-05-13T01:57:48.274Z,80.23
2023-05-13T02:00:15.708Z,80.28
2023-05-13T02:02:42.352Z,80.34
2023-05-13T02:05:09.230Z,79.55
2023-05-13T02:07:35.976Z,80.90
2023-05-13T02:10:02.449Z,81.22
2023-05-13T02:12:28.967Z,81.75
2023-05-13T02:14:55.793Z,80.96
2023-05-13T02:17:22.980Z,81.12
2023-05-13T02:19:49.723Z,82.54
2023-05-13T02:22:16.551Z,82.55
2023-05-13T02:24:43.079Z,82.74
2023-05-13T02:27:12.439Z,82.08
2023-05-13T02:29:39.222Z,81.76
2023-05-13T02:32:06.386Z,81.97
2023-05-13T02:34:33.221Z,81.73
2023-05-13T02:36:59.658Z,81.31
2023-05-13T02:39:26.958Z,81.75
2023-05-13T02:41:56.376Z,82.48
2023-05-13T02:44:24.143Z,82.51
2023-05-13T02:46:51.307Z,82.07
2023-05-13T02:49:17.978Z,81.42
2023-05-13T02:51:44.423Z,79.73
2023-05-13T02:54:11.049Z,79.13
2023-05-13T02:56:38.372Z,79.40
2023-05-13T02:59:04.803Z,79.79
2023-05-13T03:01:31.468Z,79.87
2023-05-13T03:03:58.072Z,79.65
2023-05-13T03:06:24.595Z,80.08
2023-05-13T03:08:51.361Z,79.76
2023-05-13T03:11:17.889Z,78.86
2023-05-13T03:13:44.390Z,79.70
2023-05-13T03:16:13.608Z,80.63
2023-05-13T03:18:40.100Z,81.25
2023-05-13T03:21:06.578Z,81.88
2023-05-13T03:23:33.578Z,81.98
2023-05-13T03:26:02.142Z,81.84
2023-05-13T03:28:29.487Z,80.77
2023-05-13T03:30:56.047Z,79.38
2023-05-13T03:33:22.714Z,79.64
2023-05-13T03:35:49.688Z,79.00
2023-05-13T03:38:18.729Z,81.04
2023-05-13T03:40:48.332Z,81.49
2023-05-13T03:43:14.809Z,80.43
2023-05-13T03:45:48.334Z,81.40
2023-05-13T03:48:18.064Z,81.17
2023-05-13T03:50:44.679Z,80.84
2023-05-13T03:53:12.262Z,80.34
2023-05-13T03:55:40.144Z,80.51
2023-05-13T03:58:15.088Z,79.61
2023-05-13T04:00:42.618Z,79.05
2023-05-13T04:03:09.559Z,79.35
2023-05-13T04:05:36.137Z,79.40
2023-05-13T04:08:02.622Z,80.59
2023-05-13T04:10:29.068Z,81.31
2023-05-13T04:12:57.266Z,80.65
2023-05-13T04:15:23.699Z,80.35
2023-05-13T04:17:51.341Z,80.27
2023-05-13T04:20:18.054Z,80.85
2023-05-13T04:22:44.514Z,80.13
2023-05-13T04:25:11.025Z,80.26
2023-05-13T04:27:37.504Z,80.87
2023-05-13T04:30:10.954Z,80.69
2023-05-13T04:32:39.228Z,80.99
2023-05-13T04:35:09.161Z,81.34
2023-05-13T04:37:36.338Z,82.04
2023-05-13T04:40:06.937Z,81.16
2023-05-13T04:42:33.673Z,81.54
2023-05-13T04:45:01.154Z,81.07
2023-05-13T04:47:27.718Z,80.81
2023-05-13T04:49:54.282Z,81.10
2023-05-13T04:52:21.254Z,80.50
2023-05-13T04:54:48.018Z,80.52
2023-05-13T04:57:14.516Z,80.44
2023-05-13T04:59:41.058Z,80.48
2023-05-13T05:02:08.694Z,80.12
2023-05-13T05:04:35.280Z,80.31
2023-05-13T05:07:04.931Z,80.57
2023-05-13T05:09:32.059Z,80.45
2023-05-13T05:11:59.309Z,79.48
2023-05-13T05:14:27.993Z,79.01
2023-05-13T05:16:55.028Z,79.43
2023-05-13T05:19:24.186Z,78.45
2023-05-13T05:21:52.353Z,80.46
2023-05-13T05:24:19.493Z,81.61
2023-05-13T05:26:47.272Z,82.67
2023-05-13T05:29:14.264Z,83.83
2023-05-13T05:31:41.180Z,83.58
2023-05-13T05:34:07.779Z,83.80
2023-05-13T05:36:36.634Z,84.88
2023-05-13T05:39:04.662Z,84.27
2023-05-13T05:41:33.353Z,84.75
2023-05-13T05:43:59.904Z,84.50
2023-05-13T05:46:27.891Z,85.74
2023-05-13T05:48:54.993Z,83.58
2023-05-13T05:51:21.931Z,82.77
2023-05-13T05:53:49.043Z,80.21
2023-05-13T05:56:16.730Z,79.49
2023-05-13T05:58:44.728Z,77.60
2023-05-13T06:01:11.520Z,75.40
2023-05-13T06:03:38.097Z,73.92
2023-05-13T06:06:05.013Z,71.94
2023-05-13T06:08:31.499Z,70.09
2023-05-13T06:10:58.360Z,68.79
2023-05-13T06:13:26.126Z,73.63
2023-05-13T06:15:52.751Z,70.85
2023-05-13T06:18:19.262Z,69.26
2023-05-13T06:20:45.994Z,66.40
2023-05-13T06:23:14.293Z,66.46
2023-05-13T06:25:41.164Z,65.31
2023-05-13T06:28:08.983Z,64.08
2023-05-13T06:30:35.612Z,61.17
2023-05-13T06:33:02.803Z,60.52
2023-05-13T06:35:30.547Z,58.55
2023-05-13T06:37:57.919Z,58.78
2023-05-13T06:40:24.852Z,59.52
2023-05-13T06:42:51.530Z,61.88
2023-05-13T06:45:27.891Z,63.17
2023-05-13T06:47:54.790Z,63.06
2023-05-13T06:50:21.662Z,61.18
2023-05-13T06:52:48.356Z,61.86
2023-05-13T06:55:16.522Z,60.82
2023-05-13T06:57:46.614Z,61.43
2023-05-13T07:00:16.318Z,60.29
2023-05-13T07:02:44.923Z,62.36
2023-05-13T07:05:12.228Z,59.56
2023-05-13T07:07:38.772Z,59.67
2023-05-13T07:10:05.629Z,60.04
2023-05-13T07:12:32.626Z,57.24
2023-05-13T07:14:59.136Z,56.97
2023-05-13T07:17:25.667Z,58.22
2023-05-13T07:19:52.199Z,56.90
2023-05-13T07:22:18.625Z,52.67
2023-05-13T07:24:45.006Z,54.48
2023-05-13T07:27:11.414Z,53.69
2023-05-13T07:29:37.819Z,53.90
2023-05-13T07:32:07.664Z,55.45
2023-05-13T07:34:34.382Z,55.47
2023-05-13T07:37:00.828Z,55.82
2023-05-13T07:39:27.853Z,55.75
2023-05-13T07:41:54.929Z,53.13
2023-05-13T07:44:21.551Z,54.14
2023-05-13T07:46:49.285Z,53.06
2023-05-13T07:49:16.365Z,53.05
2023-05-13T07:51:42.811Z,52.13
2023-05-13T07:54:09.427Z,55.48
2023-05-13T07:56:35.881Z,56.77
2023-05-13T07:59:02.416Z,55.01
2023-05-13T08:01:29.017Z,54.24
2023-05-13T08:03:55.775Z,52.85
2023-05-13T08:06:22.332Z,53.46
2023-05-13T08:08:49.006Z,53.24
2023-05-13T08:11:15.482Z,51.89
2023-05-13T08:13:48.087Z,51.19
2023-05-13T08:16:14.546Z,50.80
2023-05-13T08:18:41.113Z,51.71
2023-05-13T08:21:07.627Z,53.24
2023-05-13T08:23:44.701Z,51.53
2023-05-13T08:26:12.934Z,52.42
2023-05-13T08:28:39.500Z,51.67
2023-05-13T08:31:06.046Z,51.25
2023-05-13T08:33:32.915Z,53.40
2023-05-13T08:36:00.508Z,53.45
2023-05-13T08:38:26.945Z,51.17
2023-05-13T08:40:53.699Z,50.81
2023-05-13T08:43:23.712Z,50.28
2023-05-13T08:45:52.171Z,52.13
2023-05-13T08:48:20.093Z,50.35
2023-05-13T08:50:47.103Z,48.98
2023-05-13T08:53:13.598Z,49.92
2023-05-13T08:55:42.925Z,51.74
2023-05-13T08:58:09.465Z,51.37
2023-05-13T09:00:36.137Z,52.64
2023-05-13T09:03:02.795Z,50.91
2023-05-13T09:05:29.524Z,52.10
2023-05-13T09:07:56.287Z,53.30
2023-05-13T09:10:22.803Z,53.67
2023-05-13T09:12:50.616Z,54.17
2023-05-13T09:15:25.560Z,53.47
2023-05-13T09:18:03.310Z,53.02
2023-05-13T09:20:31.080Z,50.57
2023-05-13T09:23:00.327Z,49.76
2023-05-13T09:25:27.660Z,48.40
2023-05-13T09:27:58.672Z,48.67
2023-05-13T09:30:26.825Z,46.40
2023-05-13T09:33:10.230Z,50.09
2023-05-13T09:35:38.951Z,48.42
2023-05-13T09:38:18.972Z,51.67
2023-05-13T09:40:55.910Z,49.58
2023-05-13T09:43:33.111Z,50.87
2023-05-13T09:46:04.516Z,51.90
2023-05-13T09:48:34.726Z,50.43
2023-05-13T09:51:01.400Z,48.92
2023-05-13T09:53:28.380Z,49.10
2023-05-13T09:55:56.964Z,49.57
2023-05-13T09:58:25.426Z,48.23
2023-05-13T10:00:52.262Z,50.20
2023-05-13T10:03:18.813Z,49.12
2023-05-13T10:05:45.544Z,47.21
2023-05-13T10:08:13.766Z,48.18
2023-05-13T10:10:41.627Z,48.14
2023-05-13T10:13:22.657Z,50.25
2023-05-13T10:15:50.144Z,50.30
2023-05-13T10:18:18.184Z,50.41
2023-05-13T10:20:45.426Z,50.35
2023-05-13T10:23:12.742Z,48.85
2023-05-13T10:25:39.320Z,50.10
2023-05-13T10:28:05.883Z,50.15
2023-05-13T10:30:35.766Z,46.78
2023-05-13T10:33:03.899Z,47.97
2023-05-13T10:35:37.128Z,49.44
2023-05-13T10:38:29.889Z,47.82
2023-05-13T10:41:09.406Z,47.69
2023-05-13T10:43:37.349Z,48.23
2023-05-13T10:46:08.474Z,47.86
2023-05-13T10:48:43.272Z,48.15
2023-05-13T10:51:14.506Z,48.73
2023-05-13T10:53:48.686Z,50.06
2023-05-13T10:56:16.486Z,51.34
2023-05-13T10:58:42.996Z,52.54
2023-05-13T11:01:18.324Z,49.55
2023-05-13T11:03:53.515Z,49.71
2023-05-13T11:06:29.219Z,48.54
2023-05-13T11:08:56.728Z,49.29
2023-05-13T11:11:24.854Z,50.16
2023-05-13T11:14:10.969Z,49.22
2023-05-13T11:16:37.988Z,48.64
2023-05-13T11:19:10.182Z,49.14
2023-05-13T11:21:39.568Z,48.54
2023-05-13T11:24:08.024Z,46.79
2023-05-13T11:26:46.852Z,47.74
2023-05-13T11:29:14.110Z,45.68
2023-05-13T11:31:44.792Z,46.48
2023-05-13T11:34:19.291Z,47.92
2023-05-13T11:36:51.186Z,48.02
2023-05-13T11:39:19.133Z,47.52
2023-05-13T11:41:50.504Z,48.84
2023-05-13T11:44:22.114Z,49.97
2023-05-13T11:46:59.939Z,51.94
2023-05-13T11:49:33.380Z,51.60
2023-05-13T11:52:04.520Z,51.60
2023-05-13T11:54:31.189Z,50.95
2023-05-13T11:56:57.760Z,49.78
2023-05-13T11:59:24.564Z,51.25
2023-05-13T12:02:01.273Z,50.28
2023-05-13T12:04:31.057Z,48.23
2023-05-13T12:06:58.029Z,48.45
2023-05-13T12:09:25.449Z,46.25
2023-05-13T12:11:53.745Z,46.67
2023-05-13T12:14:20.852Z,45.38
2023-05-13T12:16:47.638Z,46.87
2023-05-13T12:19:14.175Z,46.22
2023-05-13T12:21:40.713Z,47.04
2023-05-13T12:24:18.107Z,47.13
2023-05-13T12:26:44.583Z,46.33
2023-05-13T12:29:11.033Z,46.20
2023-05-13T12:31:37.491Z,47.46
2023-05-13T12:34:03.934Z,47.46
2023-05-13T12:36:35.997Z,47.12
2023-05-13T12:39:05.164Z,49.76
2023-05-13T12:41:35.046Z,48.38
2023-05-13T12:44:04.318Z,48.83
2023-05-13T12:46:31.457Z,48.19
2023-05-13T12:49:02.733Z,48.08
2023-05-13T12:51:29.827Z,47.05
2023-05-13T12:53:57.741Z,47.26
2023-05-13T12:56:25.443Z,47.90
2023-05-13T12:58:53.990Z,48.25
2023-05-13T13:01:21.051Z,46.17
2023-05-13T13:03:47.622Z,46.84
2023-05-13T13:06:15.193Z,47.77
2023-05-13T13:08:42.700Z,46.93
2023-05-13T13:11:09.284Z,46.61
2023-05-13T13:13:38.778Z,45.91
2023-05-13T13:16:06.217Z,46.94
2023-05-13T13:18:32.762Z,46.44
2023-05-13T13:20:59.196Z,47.35
2023-05-13T13:23:25.748Z,47.04
2023-05-13T13:25:52.187Z,48.15
2023-05-13T13:28:18.727Z,48.26
2023-05-13T13:30:48.244Z,50.43
2023-05-13T13:33:16.004Z,50.39
2023-05-13T13:35:47.092Z,51.33
2023-05-13T13:38:14.671Z,51.71
2023-05-13T13:40:41.091Z,51.54
2023-05-13T13:43:08.578Z,50.71
2023-05-13T13:45:35.473Z,50.89
2023-05-13T13:48:02.548Z,50.04
2023-05-13T13:50:29.083Z,51.19
2023-05-13T13:52:55.598Z,49.84
2023-05-13T13:55:23.191Z,50.29
2023-05-13T13:57:50.549Z,50.45
2023-05-13T14:00:17.279Z,50.79
2023-05-13T14:02:44.252Z,52.70
2023-05-13T14:05:11.977Z,55.40
2023-05-13T14:07:38.555Z,60.82
2023-05-13T14:10:06.285Z,59.12
2023-05-13T14:12:33.280Z,63.67
2023-05-13T14:14:59.976Z,63.03
2023-05-13T14:17:26.665Z,66.83
2023-05-13T14:19:55.094Z,73.93
2023-05-13T14:22:24.794Z,78.10
2023-05-13T14:24:52.297Z,78.61
2023-05-13T14:27:19.937Z,74.88
2023-05-13T14:29:47.636Z,76.31
2023-05-13T14:32:14.405Z,76.45
2023-05-13T14:34:40.858Z,75.07
2023-05-13T14:37:07.453Z,75.34
2023-05-13T14:39:34.037Z,75.89
2023-05-13T14:42:00.823Z,76.85
2023-05-13T14:44:27.231Z,76.28
2023-05-13T14:46:53.738Z,76.69
2023-05-13T14:49:20.273Z,76.88
2023-05-13T14:51:46.701Z,78.64
2023-05-13T14:54:13.310Z,77.90
2023-05-13T14:56:41.530Z,79.30
2023-05-13T14:59:08.533Z,78.24
2023-05-13T15:01:35.247Z,79.21
2023-05-13T15:04:02.078Z,79.06
2023-05-13T15:06:29.160Z,80.82
2023-05-13T15:08:56.286Z,81.97
2023-05-13T15:11:23.218Z,81.90
2023-05-13T15:13:49.757Z,82.29
2023-05-13T15:16:16.350Z,81.14
2023-05-13T15:18:42.941Z,80.93
2023-05-13T15:21:09.379Z,80.12
2023-05-13T15:23:36.029Z,81.09
2023-05-13T15:26:02.510Z,81.88
2023-05-13T15:28:29.304Z,81.34
2023-05-13T15:30:56.199Z,79.93
2023-05-13T15:33:22.772Z,79.62
2023-05-13T15:35:49.285Z,80.55
2023-05-13T15:38:15.738Z,80.21
2023-05-13T15:40:42.187Z,80.36
2023-05-13T15:43:08.638Z,79.68
2023-05-13T15:45:35.440Z,80.45
2023-05-13T15:48:01.982Z,79.93
2023-05-13T15:50:28.533Z,79.74
2023-05-13T15:52:55.292Z,79.72
2023-05-13T15:55:22.214Z,78.84
2023-05-13T15:57:50.281Z,75.15
2023-05-13T16:00:17.925Z,73.84
2023-05-13T16:02:44.475Z,75.80
2023-05-13T16:05:15.625Z,73.30
2023-05-13T16:07:42.703Z,73.06
2023-05-13T16:10:09.896Z,74.67
2023-05-13T16:12:36.784Z,75.86
2023-05-13T16:15:04.275Z,73.83
2023-05-13T16:17:30.731Z,72.43
2023-05-13T16:19:57.210Z,72.47
2023-05-13T16:22:34.505Z,72.74
2023-05-13T16:25:04.699Z,71.97
2023-05-13T16:27:32.205Z,75.13
2023-05-13T16:30:00.645Z,76.61
2023-05-13T16:32:28.151Z,78.11
2023-05-13T16:34:55.244Z,78.51
2023-05-13T16:37:21.692Z,76.81
2023-05-13T16:39:48.182Z,76.39
2023-05-13T16:42:14.629Z,75.77
2023-05-13T16:44:41.066Z,73.82
2023-05-13T16:47:11.330Z,74.89
2023-05-13T16:49:37.773Z,75.10
2023-05-13T16:52:05.012Z,75.25
2023-05-13T16:54:31.932Z,74.73
2023-05-13T16:56:59.195Z,73.89
2023-05-13T16:59:27.154Z,72.33
2023-05-13T17:01:53.680Z,72.55
2023-05-13T17:04:21.158Z,72.33
2023-05-13T17:06:47.850Z,71.67
2023-05-13T17:09:14.351Z,71.92
2023-05-13T17:11:41.064Z,72.24
2023-05-13T17:14:07.517Z,71.89
2023-05-13T17:16:33.947Z,71.78
2023-05-13T17:19:00.764Z,71.93
2023-05-13T17:21:27.228Z,72.81
2023-05-13T17:23:54.053Z,75.29
2023-05-13T17:26:21.760Z,76.46
2023-05-13T17:28:49.344Z,76.94
2023-05-13T17:31:16.014Z,71.78
2023-05-13T17:33:42.561Z,68.13
2023-05-13T17:36:09.202Z,66.19
2023-05-13T17:38:35.876Z,66.76
2023-05-13T17:41:02.554Z,68.90
2023-05-13T17:43:29.065Z,70.35
2023-05-13T17:45:55.699Z,71.35
2023-05-13T17:48:22.305Z,71.93
2023-05-13T17:50:48.887Z,74.37
2023-05-13T17:53:15.365Z,73.91
2023-05-13T17:55:41.792Z,73.17
2023-05-13T17:58:08.306Z,73.47
2023-05-13T18:00:34.717Z,74.59
2023-05-13T18:03:01.156Z,74.14
2023-05-13T18:05:27.692Z,74.42
2023-05-13T18:07:54.254Z,74.55
2023-05-13T18:10:21.184Z,76.36
2023-05-13T18:12:47.969Z,75.83
2023-05-13T18:15:14.583Z,75.98
2023-05-13T18:17:41.094Z,75.26
2023-05-13T18:20:08.246Z,76.08
2023-05-13T18:22:34.961Z,76.80
2023-05-13T18:25:01.389Z,75.09
2023-05-13T18:27:27.799Z,75.71
2023-05-13T18:29:54.289Z,76.82
2023-05-13T18:32:20.837Z,77.23
2023-05-13T18:34:47.354Z,76.67
2023-05-13T18:37:14.992Z,76.84
2023-05-13T18:39:43.434Z,77.23
2023-05-13T18:42:09.860Z,77.63
2023-05-13T18:44:36.287Z,78.85
2023-05-13T18:47:04.548Z,79.66
2023-05-13T18:49:32.250Z,80.12
2023-05-13T18:51:59.183Z,80.53
2023-05-13T18:54:27.840Z,80.76
2023-05-13T18:56:54.557Z,80.80
2023-05-13T18:59:21.330Z,81.82
2023-05-13T19:01:47.871Z,82.08
2023-05-13T19:04:15.299Z,82.07
2023-05-13T19:06:41.927Z,82.47
2023-05-13T19:09:08.441Z,82.73
2023-05-13T19:11:34.880Z,83.27
2023-05-13T19:14:01.309Z,83.04
2023-05-13T19:16:27.851Z,83.12
2023-05-13T19:18:54.526Z,83.22
2023-05-13T19:21:23.201Z,83.22
2023-05-13T19:23:50.039Z,83.48
2023-05-13T19:26:16.478Z,83.64
2023-05-13T19:28:45.947Z,83.86
2023-05-13T19:31:12.573Z,85.14
2023-05-13T19:33:39.059Z,84.77
2023-05-13T19:36:06.459Z,84.21
2023-05-13T19:38:33.909Z,84.98
2023-05-13T19:41:00.487Z,85.58
2023-05-13T19:43:26.984Z,85.35
2023-05-13T19:45:55.448Z,85.81
2023-05-13T19:48:22.014Z,85.46
2023-05-13T19:50:48.677Z,86.12
2023-05-13T19:53:15.396Z,85.85
2023-05-13T19:55:41.931Z,85.90
2023-05-13T19:58:08.492Z,84.98
2023-05-13T20:00:34.932Z,84.91
2023-05-13T20:15:06.640Z,83.48
2023-05-13T20:17:33.180Z,84.04
2023-05-13T20:19:59.673Z,83.55
2023-05-13T20:22:26.131Z,84.09
2023-05-13T20:24:54.276Z,84.46
2023-05-13T20:27:20.685Z,85.72
2023-05-13T20:29:47.939Z,84.76
2023-05-13T20:32:18.283Z,85.00
2023-05-13T20:34:44.772Z,85.63
2023-05-13T20:37:11.602Z,85.32
2023-05-13T20:39:38.036Z,85.04
2023-05-13T20:42:04.647Z,86.07
2023-05-13T20:44:31.193Z,85.84
2023-05-13T20:46:57.660Z,85.69
2023-05-13T20:49:24.187Z,85.35
2023-05-13T20:51:50.859Z,84.59
2023-05-13T20:54:17.310Z,85.29
2023-05-13T20:56:43.890Z,84.70
2023-05-13T20:59:10.352Z,85.09
2023-05-13T21:01:36.812Z,84.86
2023-05-13T21:04:05.796Z,84.25
2023-05-13T21:06:32.942Z,84.28
2023-05-13T21:08:59.439Z,84.53
2023-05-13T21:11:25.863Z,85.32
2023-05-13T21:13:52.295Z,86.35
2023-05-13T21:16:18.864Z,85.47
2023-05-13T21:18:45.543Z,85.48
2023-05-13T21:21:14.848Z,85.79
2023-05-13T21:23:45.797Z,85.73
2023-05-13T21:26:13.127Z,85.20
2023-05-13T21:28:39.813Z,85.49
2023-05-13T21:31:06.296Z,85.15
2023-05-13T21:33:34.539Z,85.69
2023-05-13T21:36:01.007Z,86.48
2023-05-13T21:38:27.616Z,87.18
2023-05-13T21:40:54.315Z,87.47
2023-05-13T21:43:20.842Z,87.33
2023-05-13T21:45:48.297Z,86.86
2023-05-13T21:48:15.376Z,86.39
2023-05-13T21:50:41.896Z,86.96
2023-05-13T21:53:08.439Z,86.62
2023-05-13T21:55:35.011Z,87.59
2023-05-13T21:58:02.803Z,87.41
2023-05-13T22:00:29.282Z,87.45
2023-05-13T22:03:00.312Z,88.13
2023-05-13T22:05:27.374Z,87.16
2023-05-13T22:07:53.888Z,87.23
2023-05-13T22:10:20.347Z,87.03
2023-05-13T22:12:46.838Z,87.01
2023-05-13T22:15:13.680Z,86.11
2023-05-13T22:17:40.220Z,85.63
2023-05-13T22:20:07.562Z,85.48
2023-05-13T22:22:34.011Z,85.70
2023-05-13T22:25:00.536Z,86.34
2023-05-13T22:27:26.986Z,86.01
2023-05-13T22:29:53.411Z,85.71
2023-05-13T22:32:19.858Z,85.26
2023-05-13T22:34:46.300Z,85.48
2023-05-13T22:37:12.708Z,86.31
2023-05-13T22:39:39.113Z,85.83
2023-05-13T22:42:05.691Z,85.64
2023-05-13T22:44:32.139Z,86.16
2023-05-13T22:46:58.653Z,86.27
2023-05-13T22:49:25.077Z,85.65
2023-05-13T22:51:51.862Z,85.56
2023-05-13T22:54:18.357Z,85.75
2023-05-13T22:56:44.864Z,85.18
2023-05-13T22:59:11.787Z,84.59
2023-05-13T23:01:38.190Z,83.68
2023-05-13T23:04:05.633Z,84.17
2023-05-13T23:06:32.207Z,84.42
2023-05-13T23:08:58.650Z,84.70
2023-05-13T23:11:25.052Z,85.16
2023-05-13T23:13:51.487Z,84.52
2023-05-13T23:16:18.952Z,84.58
2023-05-13T23:18:45.672Z,85.07
2023-05-13T23:21:12.099Z,84.59
2023-05-13T23:23:38.620Z,85.14
2023-05-13T23:26:05.746Z,86.87
2023-05-13T23:28:33.122Z,86.80
2023-05-13T23:30:59.545Z,87.01
2023-05-13T23:33:26.135Z,87.47
2023-05-13T23:35:54.056Z,87.04
2023-05-13T23:38:20.828Z,86.71
2023-05-13T23:40:47.432Z,86.41
2023-05-13T23:43:13.894Z,86.06
2023-05-13T23:45:40.615Z,85.91
2023-05-13T23:48:07.262Z,86.03
2023-05-13T23:50:33.731Z,85.27
2023-05-13T23:53:00.412Z,86.09
2023-05-13T23:55:26.839Z,86.44
2023-05-13T23:57:53.270Z,87.22
